Time;durP1;ratioP1;P1;durP2;ratioP2;P2;SDS_P1;SDS_P2;PMS_P1;PMS_P2;Temp;Humidity;BMP_temperature;BMP_pressure;BME280_temperature;BME280_humidity;BME280_pressure;Samples;Min_cycle;Max_cycle;Signal;HPM_P1;HPM_P2
2021/11/25 00:01:09;;;;;;;23.08;17.50;;;;;;;0.51;92.88;100819.28;5002680;23;20074;-52
2021/11/25 00:03:35;;;;;;;23.23;17.40;;;;;;;0.55;93.59;100815.59;4993802;28;20058;-50
2021/11/25 00:06:04;;;;;;;23.48;16.77;;;;;;;0.59;93.44;100820.50;4994065;28;20065;-52
2021/11/25 00:08:33;;;;;;;28.38;17.48;;;;;;;0.65;92.88;100809.84;4993632;28;20093;-54
2021/11/25 00:10:59;;;;;;;23.85;16.63;;;;;;;0.61;93.09;100810.09;4993572;28;20104;-52
2021/11/25 00:13:26;;;;;;;22.63;16.50;;;;;;;0.71;92.76;100816.41;4993981;28;20078;-52
2021/11/25 00:18:53;;;;;;;23.65;16.02;;;;;;;0.69;92.57;100825.13;4999231;28;20054;-50
2021/11/25 00:21:21;;;;;;;23.45;17.42;;;;;;;0.58;93.37;100812.84;4991906;28;20127;-50
2021/11/25 00:23:48;;;;;;;27.08;18.10;;;;;;;0.61;92.95;100812.69;4993182;28;20093;-48
2021/11/25 00:26:15;;;;;;;25.15;18.48;;;;;;;0.57;93.48;100809.47;4992766;28;20121;-46
2021/11/25 00:28:42;;;;;;;25.70;17.75;;;;;;;0.70;92.77;100812.16;4992611;28;20524;-47
2021/11/25 00:31:09;;;;;;;27.00;18.73;;;;;;;0.70;93.07;100811.34;4992968;28;20109;-48
2021/11/25 00:33:36;;;;;;;26.70;19.65;;;;;;;0.69;93.27;100805.34;4992622;28;20512;-48
2021/11/25 00:36:04;;;;;;;30.23;20.42;;;;;;;0.70;92.88;100801.03;4992899;28;20058;-49
2021/11/25 00:38:32;;;;;;;27.50;19.23;;;;;;;0.78;92.74;100802.25;4992682;28;20050;-48
2021/11/25 00:40:58;;;;;;;29.30;19.98;;;;;;;0.78;93.24;100797.09;4992842;28;20109;-48
2021/11/25 00:43:25;;;;;;;24.92;18.55;;;;;;;0.87;92.65;100804.28;4992602;28;20421;-47
2021/11/25 00:45:52;;;;;;;24.00;18.08;;;;;;;0.90;92.86;100793.81;4992422;28;20121;-47
2021/11/25 00:48:19;;;;;;;24.40;18.10;;;;;;;0.93;92.87;100800.53;4992070;28;20050;-48
2021/11/25 00:50:47;;;;;;;28.13;18.88;;;;;;;0.93;93.30;100796.22;4992187;28;20117;-49
2021/11/25 00:53:15;;;;;;;27.08;18.85;;;;;;;0.99;93.26;100787.25;4992299;28;20074;-51
2021/11/25 00:55:43;;;;;;;24.95;18.05;;;;;;;1.09;92.55;100782.38;4991855;28;20052;-49
2021/11/25 00:58:10;;;;;;;25.05;18.02;;;;;;;0.96;92.83;100779.72;4991697;28;20082;-49
2021/11/25 01:00:38;;;;;;;22.77;16.70;;;;;;;1.15;91.54;100772.53;4991925;28;20501;-47
2021/11/25 01:03:05;;;;;;;28.52;17.55;;;;;;;1.02;92.51;100770.78;4991833;28;20105;-51
2021/11/25 01:05:32;;;;;;;26.52;17.63;;;;;;;0.92;92.75;100768.78;4991560;28;20078;-47
2021/11/25 01:07:59;;;;;;;23.42;17.00;;;;;;;0.97;92.51;100769.31;4991574;28;20056;-51
2021/11/25 01:10:26;;;;;;;24.08;16.85;;;;;;;0.92;92.63;100773.94;4991995;28;20082;-48
2021/11/25 01:12:56;;;;;;;22.45;16.88;;;;;;;0.89;93.23;100763.81;4991425;28;20082;-48
2021/11/25 01:15:30;;;;;;;22.15;17.08;;;;;;;1.07;92.94;100771.34;4991986;28;20050;-49
2021/11/25 01:17:57;;;;;;;23.67;17.08;;;;;;;1.20;92.61;100772.28;4991485;28;20428;-47
2021/11/25 01:20:24;;;;;;;21.13;15.95;;;;;;;1.20;92.32;100772.28;4991743;28;20386;-47
2021/11/25 01:22:51;;;;;;;23.30;16.33;;;;;;;1.20;92.71;100762.78;4991795;28;20050;-50
2021/11/25 01:25:18;;;;;;;22.92;16.80;;;;;;;0.96;92.71;100756.53;4991227;28;20100;-47
2021/11/25 01:27:45;;;;;;;22.92;15.77;;;;;;;0.92;93.19;100750.75;4991769;28;20133;-51
2021/11/25 01:30:15;;;;;;;21.23;15.77;;;;;;;0.89;92.88;100750.94;4991449;28;20086;-49
2021/11/25 01:32:42;;;;;;;22.83;16.33;;;;;;;0.79;93.30;100757.53;4991326;28;20082;-46
2021/11/25 01:35:10;;;;;;;20.52;15.40;;;;;;;0.72;93.11;100747.69;4991657;28;20536;-49
2021/11/25 01:37:40;;;;;;;23.60;16.63;;;;;;;0.56;93.05;100748.56;4991374;28;20100;-47
2021/11/25 01:40:09;;;;;;;21.48;16.13;;;;;;;0.46;94.06;100754.38;4991399;28;20054;-49
2021/11/25 01:42:36;;;;;;;22.17;15.70;;;;;;;0.38;93.93;100751.41;4991395;28;20133;-48
2021/11/25 01:45:04;;;;;;;23.40;16.52;;;;;;;0.32;94.25;100753.41;4991487;28;20050;-48
2021/11/25 01:47:32;;;;;;;25.25;17.35;;;;;;;0.20;94.58;100753.28;4991218;28;20054;-50
2021/11/25 01:49:59;;;;;;;22.02;17.05;;;;;;;0.14;94.65;100754.44;4991431;28;20058;-48
2021/11/25 01:52:26;;;;;;;24.42;16.90;;;;;;;0.26;94.63;100755.50;4991142;28;20054;-48
2021/11/25 01:54:53;;;;;;;24.80;18.17;;;;;;;0.36;94.53;100763.53;4991497;28;20057;-49
2021/11/25 01:57:21;;;;;;;25.83;17.13;;;;;;;0.27;94.85;100760.56;4991232;28;20050;-48
2021/11/25 01:59:48;;;;;;;24.98;17.45;;;;;;;0.37;95.40;100752.31;4991423;28;20457;-52
2021/11/25 02:02:15;;;;;;;23.33;17.42;;;;;;;0.56;95.16;100755.47;4991239;28;20051;-48
2021/11/25 02:04:44;;;;;;;25.20;17.63;;;;;;;0.52;95.09;100747.09;4991032;28;20050;-50
2021/11/25 02:07:11;;;;;;;25.55;18.23;;;;;;;0.62;95.09;100752.53;4991175;28;20559;-48
2021/11/25 02:09:38;;;;;;;26.70;17.45;;;;;;;0.75;95.19;100742.34;4990874;28;20108;-51
2021/11/25 02:12:05;;;;;;;24.65;17.60;;;;;;;0.74;94.75;100738.13;4991182;28;20518;-51
2021/11/25 02:14:32;;;;;;;24.15;17.08;;;;;;;0.79;94.37;100742.09;4991361;28;20468;-51
2021/11/25 02:16:59;;;;;;;22.98;17.05;;;;;;;0.82;94.92;100744.47;4991153;28;20428;-50
2021/11/25 02:19:27;;;;;;;25.05;17.50;;;;;;;0.91;94.01;100741.38;4990792;28;20524;-48
2021/11/25 02:21:56;;;;;;;27.55;17.92;;;;;;;0.91;94.04;100746.50;4991274;28;20050;-49
2021/11/25 02:24:24;;;;;;;24.38;17.55;;;;;;;0.92;94.48;100732.72;4990803;28;20054;-50
2021/11/25 02:26:51;;;;;;;26.95;17.48;;;;;;;0.90;93.86;100739.72;4991028;28;20241;-48
2021/11/25 02:29:18;;;;;;;27.92;17.42;;;;;;;0.96;94.52;100741.88;4991693;28;20129;-49
2021/11/25 02:31:45;;;;;;;24.30;17.45;;;;;;;0.95;93.86;100734.25;4991044;28;20479;-48
2021/11/25 02:34:12;;;;;;;23.50;17.33;;;;;;;0.96;94.30;100726.44;4991520;28;20085;-49
2021/11/25 02:36:39;;;;;;;23.90;17.40;;;;;;;1.22;94.12;100729.19;4990815;28;20064;-50
2021/11/25 02:39:08;;;;;;;24.40;17.65;;;;;;;1.07;93.81;100725.78;4990964;28;20476;-54
2021/11/25 02:41:34;;;;;;;26.92;17.92;;;;;;;0.98;93.67;100714.28;4990838;28;20432;-47
2021/11/25 02:44:01;;;;;;;24.85;17.02;;;;;;;0.96;94.01;100716.13;4991042;28;20055;-51
2021/11/25 02:46:31;;;;;;;23.02;17.13;;;;;;;0.93;94.51;100713.75;4994255;28;20093;-53
2021/11/25 02:48:59;;;;;;;23.80;17.75;;;;;;;0.99;94.48;100720.25;4994645;28;20145;-53
2021/11/25 02:51:28;;;;;;;23.48;16.70;;;;;;;1.08;93.92;100718.88;4994607;28;20054;-48
2021/11/25 02:53:55;;;;;;;24.08;17.25;;;;;;;1.11;94.02;100724.69;4994660;28;20117;-50
2021/11/25 02:56:26;;;;;;;23.65;17.05;;;;;;;1.17;93.67;100723.47;4994313;28;20081;-50
2021/11/25 02:58:56;;;;;;;27.17;17.23;;;;;;;1.03;93.34;100718.34;4994341;28;20141;-52
2021/11/25 03:01:26;;;;;;;27.02;16.90;;;;;;;1.05;93.89;100719.06;4994297;28;20479;-55
2021/11/25 03:03:53;;;;;;;24.50;17.10;;;;;;;1.12;93.47;100712.63;4994982;28;20072;-54
2021/11/25 03:06:20;;;;;;;21.30;16.38;;;;;;;1.13;93.82;100712.53;4994105;28;20084;-49
2021/11/25 03:08:47;;;;;;;25.23;17.80;;;;;;;1.10;93.52;100701.59;4994176;28;20090;-52
2021/11/25 03:11:16;;;;;;;24.67;16.85;;;;;;;1.05;93.60;100701.84;4994312;28;20472;-52
2021/11/25 03:13:46;;;;;;;26.70;17.80;;;;;;;1.11;94.07;100706.63;4994345;28;20556;-50
2021/11/25 03:16:16;;;;;;;26.85;16.83;;;;;;;1.24;93.62;100707.56;4994429;28;20414;-52
2021/11/25 03:18:43;;;;;;;26.58;17.38;;;;;;;1.25;93.64;100698.06;4993915;28;20050;-49
2021/11/25 03:21:11;;;;;;;24.63;17.85;;;;;;;1.24;93.63;100699.00;4993957;28;20133;-48
2021/11/25 03:23:39;;;;;;;23.77;16.85;;;;;;;1.23;93.99;100697.34;4993941;28;20110;-49
2021/11/25 03:26:08;;;;;;;20.88;16.70;;;;;;;1.35;93.13;100691.44;4993635;28;20058;-47
2021/11/25 03:28:42;;;;;;;22.60;16.55;;;;;;;1.51;92.57;100686.94;4993666;28;20525;-50
2021/11/25 03:31:10;;;;;;;22.95;15.88;;;;;;;1.46;93.11;100683.00;4994075;28;20070;-49
2021/11/25 03:33:37;;;;;;;25.70;16.48;;;;;;;1.50;92.65;100674.13;4993574;28;20413;-48
2021/11/25 03:36:06;;;;;;;20.58;14.95;;;;;;;1.48;92.48;100671.66;4993867;28;20089;-50
2021/11/25 03:38:34;;;;;;;21.88;15.40;;;;;;;1.46;92.46;100668.34;4993715;28;20084;-48
2021/11/25 03:41:01;;;;;;;22.33;15.95;;;;;;;1.45;93.27;100652.97;4993765;28;20133;-47
2021/11/25 03:43:28;;;;;;;22.17;16.55;;;;;;;1.36;93.22;100669.06;4993580;28;20124;-47
2021/11/25 03:45:55;;;;;;;22.25;16.25;;;;;;;1.34;93.44;100669.16;4993497;28;20088;-50
2021/11/25 03:48:28;;;;;;;23.92;18.23;;;;;;;1.31;93.47;100661.59;4992810;28;20172;-50
2021/11/25 03:50:54;;;;;;;;;;;;;;;1.37;93.45;100657.81;4993866;28;20120;-51
2021/11/25 03:53:21;;;;;;;26.17;17.63;;;;;;;1.33;93.43;100654.59;4993076;28;19965;-47
2021/11/25 03:55:47;;;;;;;25.52;18.10;;;;;;;1.36;93.59;100654.41;4992833;28;20466;-50
2021/11/25 03:58:15;;;;;;;25.50;17.63;;;;;;;1.38;93.41;100660.28;4990067;28;20481;-49
2021/11/25 04:00:41;;;;;;;24.13;18.10;;;;;;;1.37;93.59;100660.38;4991347;28;20104;-47
2021/11/25 04:03:08;;;;;;;24.20;17.90;;;;;;;1.42;93.40;100666.09;4992090;28;20129;-54
2021/11/25 04:05:36;;;;;;;24.60;17.67;;;;;;;1.41;93.61;100665.25;4992829;28;20144;-49
2021/11/25 04:08:03;;;;;;;25.45;18.08;;;;;;;1.50;93.30;100661.25;4992159;28;20086;-50
2021/11/25 04:10:31;;;;;;;21.48;17.65;;;;;;;1.41;93.59;100660.09;4992540;28;20081;-51
2021/11/25 04:12:58;;;;;;;24.30;17.65;;;;;;;1.52;93.72;100652.50;4992218;28;20082;-48
2021/11/25 04:15:24;;;;;;;23.08;17.95;;;;;;;1.46;93.02;100641.75;4992236;28;20082;-51
2021/11/25 04:17:52;;;;;;;24.13;17.65;;;;;;;1.43;93.62;100639.34;4992177;28;20476;-49
2021/11/25 04:20:18;;;;;;;24.45;18.08;;;;;;;1.59;92.72;100638.28;4991807;28;20078;-55
2021/11/25 04:22:46;;;;;;;26.20;18.73;;;;;;;1.40;92.89;100655.88;4991566;28;20050;-53
2021/11/25 04:25:14;;;;;;;24.58;19.25;;;;;;;1.37;93.28;100652.66;4991980;28;20500;-55
2021/11/25 04:27:41;;;;;;;29.30;19.92;;;;;;;1.37;93.33;100652.66;4992220;28;20571;-47
2021/11/25 04:30:12;;;;;;;30.77;20.23;;;;;;;1.38;93.17;100649.97;4992242;28;20058;-47
2021/11/25 04:35:31;;;;;;;27.95;20.00;;;;;;;1.67;92.27;100646.34;4992058;28;20065;-48
2021/11/25 04:38:02;;;;;;;30.77;20.20;;;;;;;1.75;91.71;100639.88;4991957;28;20050;-46
2021/11/25 04:40:32;;;;;;;29.23;20.67;;;;;;;1.61;92.42;100636.44;4991875;28;20077;-47
2021/11/25 04:42:58;;;;;;;27.42;20.58;;;;;;;1.63;93.09;100642.31;4991147;28;20141;-48
2021/11/25 04:45:25;;;;;;;27.45;20.55;;;;;;;1.60;93.02;100650.25;4991496;28;20112;-47
2021/11/25 04:47:52;;;;;;;27.25;21.30;;;;;;;1.62;92.67;100632.09;4991935;28;20086;-52
2021/11/25 04:50:20;;;;;;;30.70;21.13;;;;;;;1.57;92.65;100632.41;4991549;28;20093;-47
2021/11/25 04:52:47;;;;;;;30.77;21.20;;;;;;;1.58;92.96;100630.66;4990792;28;20141;-46
2021/11/25 04:55:16;;;;;;;30.02;21.30;;;;;;;1.54;92.95;100635.16;4991577;28;20051;-51
2021/11/25 04:57:43;;;;;;;29.50;21.45;;;;;;;1.59;92.89;100633.13;4991384;28;20448;-47
2021/11/25 05:00:11;;;;;;;29.02;21.40;;;;;;;1.59;92.83;100637.44;4991176;28;20124;-49
2021/11/25 05:02:37;;;;;;;30.55;20.95;;;;;;;1.58;92.98;100644.38;4990638;28;20073;-51
2021/11/25 05:05:06;;;;;;;29.65;21.42;;;;;;;1.62;93.09;100632.94;4991164;28;20092;-51
2021/11/25 05:07:33;;;;;;;29.35;21.85;;;;;;;1.59;92.99;100624.56;4991046;28;20133;-49
2021/11/25 05:10:00;;;;;;;29.70;22.50;;;;;;;1.57;92.71;100618.66;4990920;28;20057;-49
2021/11/25 05:12:29;;;;;;;32.58;23.75;;;;;;;1.50;92.76;100613.09;4990243;28;20474;-46
2021/11/25 05:14:56;;;;;;;30.10;22.13;;;;;;;1.47;93.18;100613.28;4991298;28;20165;-51
2021/11/25 05:17:23;;;;;;;32.63;21.38;;;;;;;1.48;93.20;100627.81;4990742;28;20144;-50
2021/11/25 05:19:50;;;;;;;31.42;21.55;;;;;;;1.49;93.50;100624.31;4990757;28;20050;-48
2021/11/25 05:22:17;;;;;;;29.42;22.67;;;;;;;1.72;92.47;100622.03;4990493;28;20085;-47
2021/11/25 05:24:44;;;;;;;34.58;23.05;;;;;;;1.70;92.71;100634.19;4990942;28;20429;-47
2021/11/25 05:27:11;;;;;;;36.30;24.08;;;;;;;1.74;92.24;100630.50;4990238;28;20050;-47
2021/11/25 05:29:39;;;;;;;34.17;24.52;;;;;;;1.70;92.11;100644.50;4979182;28;20733;-46
2021/11/25 05:32:08;;;;;;;31.98;23.33;;;;;;;1.67;91.65;100641.19;4990261;28;20061;-51
2021/11/25 05:34:36;;;;;;;29.55;22.27;;;;;;;1.67;91.92;100645.53;4990365;28;20112;-52
2021/11/25 05:37:03;;;;;;;32.70;22.23;;;;;;;1.64;92.05;100643.97;4990552;28;20050;-48
2021/11/25 05:39:30;;;;;;;34.00;23.48;;;;;;;1.73;91.21;100646.91;4989973;28;20125;-48
2021/11/25 05:41:56;;;;;;;32.40;23.38;;;;;;;1.74;91.57;100640.81;4989781;28;20086;-51
2021/11/25 05:44:23;;;;;;;35.78;23.50;;;;;;;1.71;91.65;100641.00;4990086;28;20144;-46
2021/11/25 05:46:51;;;;;;;30.95;22.38;;;;;;;1.71;91.76;100648.75;4990342;28;20093;-49
2021/11/25 05:49:18;;;;;;;35.15;25.05;;;;;;;1.89;90.76;100650.13;4990312;28;20054;-47
2021/11/25 05:51:45;;;;;;;34.92;24.45;;;;;;;1.80;90.39;100645.56;4990323;28;20050;-51
2021/11/25 05:54:12;;;;;;;31.85;23.83;;;;;;;1.81;90.43;100647.22;4989888;28;20046;-49
2021/11/25 05:56:38;;;;;;;35.38;24.63;;;;;;;1.69;90.79;100642.84;4990850;28;20120;-49
2021/11/25 05:59:05;;;;;;;33.47;24.13;;;;;;;1.67;91.04;100646.34;4990491;28;20450;-47
2021/11/25 06:01:32;;;;;;;32.92;24.42;;;;;;;1.66;91.08;100655.03;4989592;28;20043;-51
2021/11/25 06:04:01;;;;;;;35.58;25.25;;;;;;;1.83;90.83;100653.13;4989048;28;20097;-56
2021/11/25 06:06:28;;;;;;;37.28;25.65;;;;;;;1.76;90.88;100652.69;4990077;28;20129;-49
2021/11/25 06:08:54;;;;;;;36.85;25.60;;;;;;;1.70;90.96;100647.91;4990190;28;20124;-48
2021/11/25 06:11:21;;;;;;;34.65;26.23;;;;;;;1.63;91.31;100655.22;4990184;28;20054;-50
2021/11/25 06:13:48;;;;;;;34.00;25.15;;;;;;;1.63;91.37;100642.31;4989804;28;20042;-52
2021/11/25 06:16:15;;;;;;;36.20;25.23;;;;;;;1.64;91.63;100628.50;4990218;28;20082;-51
2021/11/25 06:18:42;;;;;;;38.28;24.55;;;;;;;1.75;90.84;100637.31;5017662;23;20050;-52
2021/11/25 06:21:11;;;;;;;36.33;26.25;;;;;;;1.75;90.80;100634.72;4994791;28;20125;-53
2021/11/25 06:23:39;;;;;;;36.38;24.50;;;;;;;1.64;91.24;100641.41;4994794;28;20197;-55
2021/11/25 06:26:22;;;;;;;34.67;25.40;;;;;;;1.62;91.25;100629.53;4995597;28;20068;-54
2021/11/25 06:28:59;;;;;;;35.85;25.45;;;;;;;1.63;91.63;100629.44;4996946;28;20050;-53
2021/11/25 06:31:45;;;;;;;34.17;24.67;;;;;;;1.68;91.54;100616.22;5034677;28;20511;-57
2021/11/25 06:34:22;;;;;;;35.67;26.67;;;;;;;1.70;91.32;100614.38;5034058;28;20057;-54
2021/11/25 06:36:51;;;;;;;38.70;27.38;;;;;;;1.94;90.59;100610.19;5034738;28;20053;-55
2021/11/25 06:39:17;;;;;;;36.30;25.73;;;;;;;1.82;90.53;100599.84;5037716;23;20058;-78
2021/11/25 06:41:44;;;;;;;33.92;24.85;;;;;;;1.83;90.57;100598.94;5005800;28;20250;-78
2021/11/25 06:44:14;;;;;;;38.33;26.83;;;;;;;1.72;90.61;100601.38;4997245;28;20054;-79
2021/11/25 06:46:42;;;;;;;40.17;26.35;;;;;;;1.72;90.92;100591.91;4999100;28;20079;-80
2021/11/25 06:49:09;;;;;;;44.70;27.83;;;;;;;1.44;91.34;100587.69;4997541;28;20039;-78
2021/11/25 06:52:13;;;;;;;43.28;27.48;;;;;;;1.37;91.35;100576.13;5013740;23;20456;-86
2021/11/25 06:55:08;;;;;;;45.40;28.70;;;;;;;1.18;92.63;100591.13;5010326;28;20395;-85
2021/11/25 06:57:35;;;;;;;38.75;26.42;;;;;;;0.80;93.64;100566.00;5019430;28;20444;-84
2021/11/25 07:02:53;;;;;;;44.53;28.92;;;;;;;0.86;94.36;100595.72;4996379;28;20298;-85
2021/11/25 07:06:33;;;;;;;;;;;;;;;;;;;;;
2021/11/25 07:12:34;;;;;;;47.78;30.23;;;;;;;0.53;94.76;100585.72;4830491;29;20128;-84
2021/11/25 07:15:02;;;;;;;54.38;33.80;;;;;;;0.46;94.80;100585.28;4864521;29;20044;-82
2021/11/25 07:17:29;;;;;;;49.80;31.42;;;;;;;0.61;94.13;100616.97;4971299;28;20423;-82
2021/11/25 07:19:56;;;;;;;47.95;31.02;;;;;;;0.62;94.53;100618.63;4998318;28;20491;-82
2021/11/25 07:22:23;;;;;;;52.22;32.35;;;;;;;0.66;94.23;100612.38;4999232;28;20050;-83
2021/11/25 07:24:49;;;;;;;53.88;32.83;;;;;;;0.63;94.53;100625.44;4999934;28;20085;-82
2021/11/25 07:27:16;;;;;;;46.85;30.77;;;;;;;0.60;94.12;100628.19;4999470;28;20054;-82
2021/11/25 07:29:44;;;;;;;44.47;29.42;;;;;;;0.72;94.09;100629.22;4998717;28;20469;-84
2021/11/25 07:32:11;;;;;;;42.78;27.88;;;;;;;0.61;94.47;100622.13;4998310;28;20090;-82
2021/11/25 07:34:39;;;;;;;43.90;28.88;;;;;;;0.66;93.79;100635.56;4999100;28;20353;-82
2021/11/25 07:37:06;;;;;;;43.03;27.17;;;;;;;0.68;94.36;100638.03;4999205;28;20070;-82
2021/11/25 07:39:33;;;;;;;48.80;31.35;;;;;;;0.75;93.90;100645.31;4998353;28;20081;-84
2021/11/25 07:41:59;;;;;;;45.67;28.92;;;;;;;0.92;93.89;100647.69;4998646;28;20081;-83
2021/11/25 07:44:28;;;;;;;43.47;28.25;;;;;;;0.97;93.84;100640.47;4999084;28;20518;-83
2021/11/25 07:47:04;;;;;;;43.20;28.98;;;;;;;1.14;92.71;100636.03;4999413;28;20089;-84
2021/11/25 07:49:39;;;;;;;43.40;28.10;;;;;;;1.22;93.02;100646.69;4999098;28;20052;-85
2021/11/25 07:52:07;;;;;;;42.75;27.40;;;;;;;1.32;92.98;100640.88;4998849;28;20054;-87
2021/11/25 07:54:34;;;;;;;40.22;26.90;;;;;;;1.40;92.83;100635.25;5000423;28;20200;-86
2021/11/25 07:57:01;;;;;;;41.20;27.42;;;;;;;1.40;91.91;100631.84;4999495;28;20132;-88
2021/11/25 07:59:27;;;;;;;40.80;27.70;;;;;;;1.36;92.07;100632.97;4999901;28;20178;-87
2021/11/25 08:01:57;;;;;;;37.83;26.45;;;;;;;1.33;91.43;100636.56;4999608;28;20124;-87
2021/11/25 08:04:23;;;;;;;36.15;26.20;;;;;;;1.51;91.28;100648.25;4999540;28;20085;-87
2021/11/25 08:06:50;;;;;;;38.00;26.55;;;;;;;1.54;90.37;100644.66;4998968;28;20086;-90
2021/11/25 08:09:17;;;;;;;37.13;27.02;;;;;;;1.62;90.28;100639.84;4999262;28;20078;-88
2021/11/25 08:11:44;;;;;;;42.97;27.17;;;;;;;1.51;89.94;100640.53;4998537;28;20480;-89
2021/11/25 08:14:11;;;;;;;40.40;26.70;;;;;;;1.57;90.36;100640.13;4992921;28;20134;-87
2021/11/25 08:16:38;;;;;;;38.92;26.42;;;;;;;1.57;89.80;100639.31;4977686;28;20047;-90
2021/11/25 08:19:07;;;;;;;43.20;27.02;;;;;;;1.55;89.87;100641.16;4977591;28;20232;-88
2021/11/25 08:21:34;;;;;;;40.65;26.98;;;;;;;1.53;89.92;100643.00;4977636;28;20130;-88
2021/11/25 08:24:01;;;;;;;41.88;27.40;;;;;;;1.63;89.93;100650.06;4977187;28;20498;-86
2021/11/25 08:26:27;;;;;;;40.10;27.02;;;;;;;1.51;89.90;100647.44;4976974;28;20054;-87
2021/11/25 08:28:54;;;;;;;42.05;28.30;;;;;;;1.62;89.50;100647.56;4977373;28;20341;-84
2021/11/25 08:31:20;;;;;;;41.58;28.25;;;;;;;1.52;90.24;100633.63;4977581;28;20050;-86
2021/11/25 08:33:47;;;;;;;44.58;28.45;;;;;;;1.62;89.55;100635.50;4977312;28;20094;-87
2021/11/25 08:36:16;;;;;;;45.28;28.77;;;;;;;1.46;90.34;100632.25;4978136;28;20082;-86
2021/11/25 08:38:46;;;;;;;38.22;26.55;;;;;;;1.38;90.27;100634.50;4979984;28;20046;-85
2021/11/25 08:41:25;;;;;;;39.90;26.48;;;;;;;1.49;90.14;100626.91;4978957;28;20047;-88
2021/11/25 08:43:52;;;;;;;41.70;26.10;;;;;;;1.24;90.52;100604.44;4976407;28;20072;-88
2021/11/25 08:46:19;;;;;;;42.20;27.23;;;;;;;1.32;90.21;100607.38;4977867;28;20065;-88
2021/11/25 08:48:46;;;;;;;44.83;26.15;;;;;;;1.46;89.95;100611.63;4978209;28;20440;-89
2021/11/25 08:51:16;;;;;;;41.55;27.27;;;;;;;1.58;90.11;100620.31;4977797;28;20121;-86
2021/11/25 08:56:41;;;;;;;38.45;25.35;;;;;;;1.62;89.68;100612.28;4964360;28;20092;-87
2021/11/25 08:59:08;;;;;;;38.58;25.92;;;;;;;1.73;89.83;100626.25;4972238;28;20046;-88
2021/11/25 09:01:35;;;;;;;38.22;25.90;;;;;;;1.79;89.64;100625.84;4997167;23;20038;-48
2021/11/25 09:04:02;;;;;;;38.05;26.38;;;;;;;1.84;89.60;100637.53;5008759;28;20117;-50
2021/11/25 09:06:30;;;;;;;39.72;25.90;;;;;;;1.95;89.33;100626.50;4993109;28;20082;-54
2021/11/25 09:08:56;;;;;;;41.08;25.92;;;;;;;2.00;88.60;100635.59;4996019;28;20089;-55
2021/11/25 09:11:24;;;;;;;40.83;26.42;;;;;;;1.94;88.96;100637.75;5002895;28;20392;-53
2021/11/25 09:13:50;;;;;;;40.67;27.15;;;;;;;1.93;89.57;100626.59;5012393;28;20054;-53
2021/11/25 09:16:17;;;;;;;43.67;26.67;;;;;;;2.02;89.33;100626.91;5012233;28;20045;-54
2021/11/25 09:18:44;;;;;;;39.15;28.00;;;;;;;2.10;88.94;100638.38;5011931;28;20050;-57
2021/11/25 09:21:12;;;;;;;40.45;26.85;;;;;;;2.16;89.16;100637.97;5012130;28;20088;-50
2021/11/25 09:23:40;;;;;;;41.10;27.05;;;;;;;2.14;89.13;100634.69;5004067;28;20421;-52
2021/11/25 09:26:06;;;;;;;39.20;26.75;;;;;;;2.14;89.17;100645.00;4992487;28;20136;-50
2021/11/25 09:28:34;;;;;;;42.20;26.25;;;;;;;2.39;89.18;100648.50;4993851;28;20472;-51
2021/11/25 09:31:02;;;;;;;42.95;27.67;;;;;;;2.62;88.83;100648.63;5010772;28;20046;-50
2021/11/25 09:33:29;;;;;;;40.08;27.83;;;;;;;2.86;87.56;100638.34;5011509;28;20065;-48
2021/11/25 09:35:55;;;;;;;42.40;27.30;;;;;;;3.13;86.80;100638.19;5010713;28;20081;-53
2021/11/25 09:38:22;;;;;;;43.25;28.17;;;;;;;3.59;85.35;100632.31;5010937;28;20111;-48
2021/11/25 09:40:50;;;;;;;42.85;28.30;;;;;;;3.89;84.00;100611.09;4996375;28;20153;-52
2021/11/25 09:43:24;;;;;;;42.00;28.67;;;;;;;3.98;83.15;100613.84;4999445;28;20045;-48
2021/11/25 09:45:51;;;;;;;45.17;28.95;;;;;;;4.11;82.68;100626.69;5000382;28;20157;-52
2021/11/25 09:48:19;;;;;;;41.60;29.23;;;;;;;4.16;82.74;100640.13;5001730;28;20042;-51
2021/11/25 09:50:49;;;;;;;44.83;30.30;;;;;;;4.12;81.36;100640.47;5010161;28;20077;-54
2021/11/25 09:53:18;;;;;;;41.13;28.75;;;;;;;4.02;82.12;100635.16;5011448;28;20045;-51
2021/11/25 09:55:48;;;;;;;44.85;30.13;;;;;;;4.43;80.97;100644.16;5005365;28;20112;-53
2021/11/25 09:58:18;;;;;;;42.83;30.38;;;;;;;4.25;82.31;100644.59;5002739;28;20093;-49
2021/11/25 10:00:49;;;;;;;41.83;31.38;;;;;;;4.23;81.56;100641.31;5009094;28;20081;-52
2021/11/25 10:03:18;;;;;;;41.83;29.75;;;;;;;4.22;81.71;100647.44;4998203;28;20054;-54
2021/11/25 10:05:47;;;;;;;43.40;30.63;;;;;;;4.23;81.95;100651.69;5008875;28;20424;-51
2021/11/25 10:08:30;;;;;;;47.28;32.90;;;;;;;4.25;82.02;100642.00;5009525;28;20054;-54
2021/11/25 10:11:00;;;;;;;49.20;31.60;;;;;;;4.39;82.26;100645.34;4997211;28;20458;-52
2021/11/25 10:13:39;;;;;;;44.85;31.40;;;;;;;4.41;81.68;100643.44;4991868;28;20089;-51
2021/11/25 10:16:09;;;;;;;42.97;31.30;;;;;;;4.39;81.06;100650.50;4991457;28;20089;-49
2021/11/25 10:18:37;;;;;;;44.40;31.42;;;;;;;4.38;81.57;100648.88;4991401;28;20054;-53
2021/11/25 10:21:06;;;;;;;41.15;29.92;;;;;;;4.31;82.44;100657.09;4991881;28;20143;-50
2021/11/25 10:23:33;;;;;;;46.63;31.58;;;;;;;4.10;82.30;100661.31;4991892;28;20109;-54
2021/11/25 10:26:01;;;;;;;46.28;32.33;;;;;;;4.22;82.24;100659.56;4991329;28;20085;-50
2021/11/25 10:28:39;;;;;;;50.38;32.45;;;;;;;4.38;82.41;100654.03;4990852;28;20051;-50
2021/11/25 10:31:11;;;;;;;47.72;32.40;;;;;;;4.47;81.36;100654.19;4991830;28;20096;-50
2021/11/25 10:33:47;;;;;;;46.60;32.00;;;;;;;4.58;81.77;100640.41;4991984;28;20133;-52
2021/11/25 10:39:09;;;;;;;49.65;34.00;;;;;;;4.85;80.47;100627.91;4991583;28;20057;-55
2021/11/25 10:41:41;;;;;;;47.53;32.83;;;;;;;4.81;80.69;100629.09;4991889;28;20051;-54
2021/11/25 10:44:16;;;;;;;48.25;34.00;;;;;;;4.89;80.77;100626.72;4991541;28;20042;-54
2021/11/25 10:46:51;;;;;;;51.40;35.08;;;;;;;4.81;80.34;100633.44;4991561;28;20089;-50
2021/11/25 10:49:19;;;;;;;44.42;32.55;;;;;;;4.81;80.07;100623.06;4991695;28;20058;-54
2021/11/25 10:51:47;;;;;;;48.53;34.00;;;;;;;4.82;80.50;100628.13;4991838;28;20058;-53
2021/11/25 10:54:17;;;;;;;51.85;34.88;;;;;;;4.66;81.10;100632.88;4991756;28;20043;-52
2021/11/25 10:56:46;;;;;;;52.72;34.45;;;;;;;4.59;81.85;100634.28;4991566;28;20476;-52
2021/11/25 10:59:17;;;;;;;53.15;34.22;;;;;;;4.71;81.30;100629.94;4991593;28;20059;-47
2021/11/25 11:01:45;;;;;;;50.08;34.30;;;;;;;4.78;81.69;100629.31;4991479;28;20136;-49
2021/11/25 11:04:14;;;;;;;53.88;34.08;;;;;;;4.65;81.61;100620.88;4991658;28;20050;-49
2021/11/25 11:06:44;;;;;;;48.60;32.65;;;;;;;4.55;81.54;100618.16;4993370;28;20086;-47
2021/11/25 11:09:29;;;;;;;45.50;31.88;;;;;;;4.55;80.85;100623.34;4994859;28;20509;-47
2021/11/25 11:12:21;;;;;;;49.78;31.77;;;;;;;4.53;80.54;100629.56;4995267;28;20141;-47
2021/11/25 11:14:54;;;;;;;42.70;30.98;;;;;;;4.61;80.55;100629.81;4994509;28;20093;-52
2021/11/25 11:17:31;;;;;;;42.85;29.75;;;;;;;4.56;80.35;100619.81;4995096;28;20047;-50
2021/11/25 11:20:16;;;;;;;44.97;31.38;;;;;;;4.63;80.36;100618.38;4993062;28;20057;-52
2021/11/25 11:22:52;;;;;;;45.13;28.77;;;;;;;4.69;79.75;100613.69;4994350;28;20061;-50
2021/11/25 11:25:21;;;;;;;44.40;29.63;;;;;;;4.70;80.08;100613.56;4994534;28;20093;-50
2021/11/25 11:27:50;;;;;;;39.53;29.27;;;;;;;4.72;80.08;100598.72;5005411;28;20156;-51
2021/11/25 11:30:19;;;;;;;40.53;29.98;;;;;;;4.63;79.89;100604.59;5001898;28;20050;-47
2021/11/25 11:32:46;;;;;;;42.03;28.40;;;;;;;4.86;79.70;100585.47;4993624;28;20077;-51
2021/11/25 11:35:13;;;;;;;48.65;28.33;;;;;;;4.86;79.95;100584.66;4993739;28;20125;-49
2021/11/25 11:37:42;;;;;;;40.25;25.55;;;;;;;4.91;79.85;100593.72;4993863;28;20052;-48
2021/11/25 11:40:10;;;;;;;39.63;27.08;;;;;;;5.09;79.38;100590.63;5012571;28;20475;-49
2021/11/25 11:42:38;;;;;;;38.70;26.42;;;;;;;5.17;78.00;100601.22;5013473;28;20104;-47
2021/11/25 11:45:06;;;;;;;38.78;26.83;;;;;;;5.12;77.76;100600.75;5013202;28;20053;-52